createdAt,value
2017-09-24T00:00:37.854Z,10.84
2017-09-24T00:03:06.212Z,10.90
2017-09-24T00:05:34.579Z,10.88
2017-09-24T00:08:02.966Z,10.98
2017-09-24T00:10:31.325Z,11.17
2017-09-24T00:12:59.674Z,11.25
2017-09-24T00:15:28.036Z,11.25
2017-09-24T00:17:56.522Z,11.39
2017-09-24T00:20:24.879Z,11.41
2017-09-24T00:22:53.226Z,11.27
2017-09-24T00:25:21.578Z,11.15
2017-09-24T00:27:49.930Z,11.02
2017-09-24T00:30:18.430Z,10.94
2017-09-24T00:32:46.778Z,10.92
2017-09-24T00:35:15.139Z,10.84
2017-09-24T00:37:43.486Z,10.89
2017-09-24T00:40:11.842Z,10.95
2017-09-24T00:42:40.222Z,11.18
2017-09-24T00:45:08.571Z,11.25
2017-09-24T00:47:36.922Z,11.34
2017-09-24T00:50:05.275Z,11.28
2017-09-24T00:52:33.626Z,11.15
2017-09-24T00:55:01.993Z,11.06
2017-09-24T00:57:30.334Z,10.97
2017-09-24T00:59:58.822Z,11.04
2017-09-24T01:02:27.174Z,11.08
2017-09-24T01:04:55.526Z,11.02
2017-09-24T01:07:23.882Z,11.12
2017-09-24T01:09:52.235Z,11.33
2017-09-24T01:12:20.627Z,11.39
2017-09-24T01:14:48.986Z,11.26
2017-09-24T01:17:17.339Z,11.14
2017-09-24T01:19:45.692Z,11.03
2017-09-24T01:22:14.043Z,10.99
2017-09-24T01:24:42.418Z,10.93
2017-09-24T01:27:10.766Z,10.92
2017-09-24T01:29:39.162Z,11.00
2017-09-24T01:32:07.514Z,11.00
2017-09-24T01:34:35.862Z,10.96
2017-09-24T01:37:04.214Z,10.95
2017-09-24T01:39:32.567Z,11.00
2017-09-24T01:42:00.919Z,10.99
2017-09-24T01:44:29.275Z,10.99
2017-09-24T01:46:57.652Z,11.29
2017-09-24T01:49:26.005Z,11.24
2017-09-24T01:51:54.482Z,11.16
2017-09-24T01:54:22.841Z,11.12
2017-09-24T01:56:51.190Z,11.09
2017-09-24T01:59:19.552Z,11.09
2017-09-24T02:01:47.911Z,11.25
2017-09-24T02:04:16.395Z,11.19
2017-09-24T02:06:44.758Z,11.11
2017-09-24T02:09:13.107Z,11.03
2017-09-24T02:11:41.458Z,11.32
2017-09-24T02:14:09.810Z,11.41
2017-09-24T02:16:38.199Z,11.24
2017-09-24T02:19:06.551Z,11.11
2017-09-24T02:21:34.926Z,11.03
2017-09-24T02:24:03.266Z,10.96
2017-09-24T02:26:31.626Z,10.92
2017-09-24T02:29:00.102Z,10.98
2017-09-24T02:31:28.455Z,11.11
2017-09-24T02:33:56.807Z,11.03
2017-09-24T02:36:25.166Z,11.24
2017-09-24T02:38:53.518Z,11.25
2017-09-24T02:41:21.877Z,11.16
2017-09-24T02:43:50.228Z,11.13
2017-09-24T02:46:18.603Z,11.14
2017-09-24T02:48:46.958Z,11.21
2017-09-24T02:51:15.312Z,11.02
2017-09-24T02:53:43.658Z,10.99
2017-09-24T02:56:12.010Z,11.06
2017-09-24T02:58:40.362Z,11.16
2017-09-24T03:01:08.718Z,11.04
2017-09-24T03:03:37.203Z,10.95
2017-09-24T03:06:05.555Z,11.05
2017-09-24T03:08:33.918Z,11.18
2017-09-24T03:11:02.263Z,11.29
2017-09-24T03:13:30.611Z,11.19
2017-09-24T03:15:58.986Z,11.04
2017-09-24T03:18:27.343Z,11.06
2017-09-24T03:20:55.696Z,10.91
2017-09-24T03:23:24.054Z,10.89
2017-09-24T03:25:52.394Z,10.93
2017-09-24T03:28:20.747Z,11.10
2017-09-24T03:30:49.099Z,11.13
2017-09-24T03:33:17.609Z,11.09
2017-09-24T03:35:45.956Z,11.23
2017-09-24T03:38:14.303Z,11.07
2017-09-24T03:40:42.655Z,10.98
2017-09-24T03:43:11.006Z,10.93
2017-09-24T03:45:39.502Z,10.88
2017-09-24T03:48:07.854Z,11.09
2017-09-24T03:50:36.207Z,11.09
2017-09-24T03:53:04.555Z,11.22
2017-09-24T03:55:32.908Z,11.24
2017-09-24T03:58:01.306Z,11.13
2017-09-24T04:00:29.661Z,11.03
2017-09-24T04:02:58.012Z,11.09
2017-09-24T04:05:26.365Z,10.96
2017-09-24T04:07:55.022Z,11.09
2017-09-24T04:10:23.383Z,11.03
2017-09-24T04:12:51.735Z,11.01
2017-09-24T04:15:20.138Z,11.01
2017-09-24T04:17:48.526Z,10.97
2017-09-24T04:20:16.883Z,10.97
2017-09-24T04:22:45.229Z,10.95
2017-09-24T04:25:13.582Z,11.17
2017-09-24T04:27:42.062Z,11.34
2017-09-24T04:30:10.419Z,11.32
2017-09-24T04:32:38.770Z,11.42
2017-09-24T04:35:07.127Z,11.29
2017-09-24T04:37:35.474Z,11.33
2017-09-24T04:40:03.855Z,11.30
2017-09-24T04:42:32.202Z,11.21
2017-09-24T04:45:00.599Z,11.13
2017-09-24T04:47:28.957Z,11.08
2017-09-24T04:49:57.312Z,11.08
2017-09-24T04:52:25.664Z,11.10
2017-09-24T04:54:54.021Z,11.09
2017-09-24T04:57:22.398Z,11.15
2017-09-24T04:59:50.750Z,11.38
2017-09-24T05:02:19.109Z,11.48
2017-09-24T05:04:47.455Z,11.48
2017-09-24T05:07:15.802Z,11.37
2017-09-24T05:09:44.190Z,11.31
2017-09-24T05:12:12.536Z,11.20
2017-09-24T05:14:40.891Z,11.10
2017-09-24T05:17:09.239Z,11.07
2017-09-24T05:19:37.595Z,10.99
2017-09-24T05:22:06.078Z,10.93
2017-09-24T05:24:34.438Z,10.89
2017-09-24T05:27:02.790Z,10.87
2017-09-24T05:29:31.142Z,10.83
2017-09-24T05:31:59.495Z,10.79
2017-09-24T05:34:27.975Z,10.75
2017-09-24T05:36:56.339Z,10.76
2017-09-24T05:39:24.691Z,10.77
2017-09-24T05:41:53.045Z,10.98
2017-09-24T05:44:21.391Z,11.00
2017-09-24T05:46:49.774Z,10.92
2017-09-24T05:49:18.123Z,10.86
2017-09-24T05:51:46.507Z,10.96
2017-09-24T05:54:14.858Z,10.86
2017-09-24T05:56:43.246Z,10.81
2017-09-24T05:59:11.599Z,10.78
2017-09-24T06:01:39.966Z,10.77
2017-09-24T06:04:08.447Z,10.76
2017-09-24T06:06:36.801Z,10.86
2017-09-24T06:09:05.159Z,10.86
2017-09-24T06:11:33.515Z,10.86
2017-09-24T06:14:02.114Z,11.15
2017-09-24T06:16:31.283Z,11.15
2017-09-24T06:19:00.624Z,11.33
2017-09-24T06:21:30.045Z,11.18
2017-09-24T06:23:58.992Z,11.13
2017-09-24T06:26:27.779Z,11.09
2017-09-24T06:28:57.193Z,11.07
2017-09-24T06:31:26.255Z,11.12
2017-09-24T06:33:54.916Z,11.21
2017-09-24T06:36:23.625Z,11.25
2017-09-24T06:38:52.670Z,11.20
2017-09-24T06:41:21.558Z,11.19
2017-09-24T06:43:50.336Z,11.20
2017-09-24T06:46:19.931Z,11.22
2017-09-24T06:48:48.906Z,11.43
2017-09-24T06:51:17.972Z,11.63
2017-09-24T06:53:46.603Z,11.61
2017-09-24T06:56:15.546Z,11.58
2017-09-24T06:58:44.232Z,11.64
2017-09-24T07:01:13.178Z,11.52
2017-09-24T07:03:42.140Z,11.47
2017-09-24T07:06:10.801Z,11.39
2017-09-24T07:08:39.863Z,11.39
2017-09-24T07:11:08.587Z,11.46
2017-09-24T07:13:37.681Z,11.58
2017-09-24T07:16:06.989Z,11.68
2017-09-24T07:18:35.766Z,11.68
2017-09-24T07:21:04.699Z,11.87
2017-09-24T07:23:33.538Z,11.99
2017-09-24T07:26:02.610Z,11.99
2017-09-24T07:28:31.327Z,12.12
2017-09-24T07:30:59.883Z,12.18
2017-09-24T07:33:28.226Z,12.10
2017-09-24T07:35:56.576Z,12.12
2017-09-24T07:38:24.922Z,12.23
2017-09-24T07:40:53.266Z,12.33
2017-09-24T07:43:21.746Z,12.56
2017-09-24T07:45:50.098Z,12.46
2017-09-24T07:48:18.434Z,12.42
2017-09-24T07:50:46.778Z,12.71
2017-09-24T07:53:15.127Z,12.67
2017-09-24T07:55:43.499Z,12.81
2017-09-24T07:58:11.854Z,12.83
2017-09-24T08:00:40.198Z,12.83
2017-09-24T08:03:08.551Z,13.02
2017-09-24T08:05:36.890Z,13.04
2017-09-24T08:08:05.271Z,13.21
2017-09-24T08:10:33.611Z,13.21
2017-09-24T08:13:01.950Z,13.34
2017-09-24T08:15:30.298Z,13.68
2017-09-24T08:17:58.640Z,13.96
2017-09-24T08:20:27.015Z,14.49
2017-09-24T08:22:55.361Z,14.99
2017-09-24T08:25:23.734Z,15.73
2017-09-24T08:27:52.097Z,15.86
2017-09-24T08:30:20.440Z,15.92
2017-09-24T08:32:48.790Z,16.16
2017-09-24T08:35:17.139Z,15.96
2017-09-24T08:37:45.483Z,15.70
2017-09-24T08:40:13.831Z,15.50
2017-09-24T08:42:42.179Z,14.95
2017-09-24T08:45:10.538Z,14.83
2017-09-24T08:47:38.931Z,14.92
2017-09-24T08:50:07.284Z,15.10
2017-09-24T08:52:35.635Z,15.16
2017-09-24T08:55:03.975Z,14.83
2017-09-24T08:57:32.332Z,14.91
2017-09-24T09:00:00.802Z,14.94
2017-09-24T09:02:29.146Z,14.71
2017-09-24T09:04:57.496Z,14.70
2017-09-24T09:07:25.843Z,14.96
2017-09-24T09:09:54.187Z,14.83
2017-09-24T09:12:22.643Z,14.53
2017-09-24T09:14:50.995Z,14.91
2017-09-24T09:17:19.341Z,15.19
2017-09-24T09:19:47.690Z,15.07
2017-09-24T09:22:16.037Z,15.57
2017-09-24T09:24:44.386Z,15.69
2017-09-24T09:27:12.733Z,15.74
2017-09-24T09:29:41.213Z,15.63
2017-09-24T09:32:09.555Z,16.18
2017-09-24T09:34:37.911Z,16.04
2017-09-24T09:37:06.251Z,15.85
2017-09-24T09:39:34.595Z,15.59
2017-09-24T09:42:03.066Z,15.59
2017-09-24T09:44:43.214Z,15.72
2017-09-24T09:47:23.215Z,16.04
2017-09-24T09:49:51.566Z,15.92
2017-09-24T09:52:19.907Z,16.47
2017-09-24T09:54:48.282Z,17.12
2017-09-24T09:57:16.632Z,17.48
2017-09-24T09:59:45.083Z,17.78
2017-09-24T10:02:13.434Z,16.99
2017-09-24T10:04:41.781Z,17.87
2017-09-24T10:07:21.811Z,18.76
2017-09-24T10:10:01.707Z,19.32
2017-09-24T10:12:30.057Z,18.55
2017-09-24T10:14:58.415Z,18.69
2017-09-24T10:17:26.784Z,18.87
2017-09-24T10:19:55.130Z,18.42
2017-09-24T10:22:23.606Z,17.91
2017-09-24T10:24:51.954Z,18.35
2017-09-24T10:27:20.301Z,18.36
2017-09-24T10:30:00.407Z,17.66
2017-09-24T10:32:28.799Z,17.38
2017-09-24T10:34:57.147Z,17.07
2017-09-24T10:37:25.496Z,17.25
2017-09-24T10:39:53.868Z,17.70
2017-09-24T10:42:22.246Z,18.00
2017-09-24T10:44:50.623Z,18.27
2017-09-24T10:47:19.322Z,18.93
2017-09-24T10:49:48.078Z,19.07
2017-09-24T10:52:16.495Z,19.49
2017-09-24T10:54:44.858Z,19.69
2017-09-24T10:57:13.208Z,19.46
2017-09-24T10:59:41.567Z,19.71
2017-09-24T11:02:09.951Z,18.91
2017-09-24T11:04:38.315Z,18.65
2017-09-24T11:07:06.715Z,17.78
2017-09-24T11:09:36.017Z,17.70
2017-09-24T11:12:04.511Z,17.48
2017-09-24T11:14:37.595Z,17.00
2017-09-24T11:17:06.277Z,16.91
2017-09-24T11:19:34.746Z,16.83
2017-09-24T11:22:04.378Z,16.79
2017-09-24T11:24:32.874Z,16.59
2017-09-24T11:27:01.380Z,16.62
2017-09-24T11:29:29.927Z,16.59
2017-09-24T11:31:58.403Z,16.88
2017-09-24T11:34:26.875Z,17.15
2017-09-24T11:36:55.400Z,17.59
2017-09-24T11:39:23.900Z,18.02
2017-09-24T11:41:52.482Z,18.43
2017-09-24T11:44:20.980Z,18.37
2017-09-24T11:46:51.288Z,18.58
2017-09-24T11:49:20.413Z,18.66
2017-09-24T11:51:50.823Z,18.30
2017-09-24T11:54:20.142Z,18.38
2017-09-24T11:56:49.240Z,18.36
2017-09-24T11:59:17.800Z,18.24
2017-09-24T12:01:46.386Z,18.22
2017-09-24T12:04:18.926Z,18.16
2017-09-24T12:06:49.054Z,18.64
2017-09-24T12:09:17.508Z,18.77
2017-09-24T12:11:46.361Z,18.40
2017-09-24T12:14:16.851Z,17.87
2017-09-24T12:16:47.273Z,18.00
2017-09-24T12:19:15.929Z,18.22
2017-09-24T12:21:44.400Z,18.59
2017-09-24T12:24:16.961Z,19.19
2017-09-24T12:26:45.860Z,19.42
2017-09-24T12:29:14.556Z,18.81
2017-09-24T12:31:43.211Z,18.89
2017-09-24T12:34:11.676Z,18.52
2017-09-24T12:37:00.197Z,18.05
2017-09-24T12:39:37.833Z,17.81
2017-09-24T12:42:06.772Z,18.16
2017-09-24T12:44:37.033Z,18.16
2017-09-24T12:47:10.362Z,18.11
2017-09-24T12:49:39.701Z,17.95
2017-09-24T12:52:09.937Z,18.03
2017-09-24T13:00:33.404Z,17.96
2017-09-24T13:12:22.622Z,17.63
2017-09-24T13:16:52.570Z,17.50
2017-09-24T13:22:52.101Z,17.03
2017-09-24T13:28:32.257Z,17.02
2017-09-24T13:34:29.396Z,17.17
2017-09-24T13:43:17.090Z,17.34
2017-09-24T13:52:23.602Z,17.21
2017-09-24T13:54:53.130Z,17.19
2017-09-24T13:57:21.996Z,17.20
2017-09-24T13:59:50.662Z,17.29
2017-09-24T14:02:19.583Z,17.07
2017-09-24T14:04:47.969Z,16.86
2017-09-24T14:07:16.300Z,16.78
2017-09-24T14:09:45.799Z,16.86
2017-09-24T16:07:42.179Z,14.71
2017-09-24T16:10:10.519Z,14.85
2017-09-24T16:12:38.867Z,14.88
2017-09-24T16:15:07.211Z,14.61
2017-09-24T16:17:35.554Z,14.46
2017-09-24T16:20:03.923Z,14.28
2017-09-24T16:22:32.270Z,14.32
2017-09-24T16:25:00.642Z,14.43
2017-09-24T16:27:29.011Z,14.49
2017-09-24T16:29:57.467Z,14.54
2017-09-24T16:32:25.854Z,14.24
2017-09-24T16:34:54.198Z,14.07
2017-09-24T16:37:22.571Z,14.14
2017-09-24T16:39:50.902Z,14.24
2017-09-24T16:42:19.551Z,14.41
2017-09-24T16:44:47.904Z,14.33
2017-09-24T16:47:16.309Z,14.25
2017-09-24T16:49:44.680Z,14.11
2017-09-24T16:52:13.040Z,13.99
2017-09-24T16:54:41.418Z,13.82
2017-09-24T16:57:09.749Z,13.79
2017-09-24T16:59:38.114Z,13.75
2017-09-24T17:02:06.608Z,13.46
2017-09-24T17:04:34.974Z,13.15
2017-09-24T17:07:03.491Z,13.00
2017-09-24T17:09:31.845Z,12.83
2017-09-24T17:12:00.181Z,12.83
2017-09-24T17:14:28.566Z,12.80
2017-09-24T17:16:57.743Z,12.81
2017-09-24T17:19:26.114Z,12.83
2017-09-24T17:21:54.451Z,13.06
2017-09-24T17:24:22.814Z,12.97
2017-09-24T17:26:51.148Z,13.02
2017-09-24T17:29:19.491Z,13.13
2017-09-24T17:31:47.842Z,13.03
2017-09-24T17:34:16.183Z,13.07
2017-09-24T17:36:44.525Z,12.96
2017-09-24T17:39:12.866Z,12.93
2017-09-24T17:41:41.203Z,12.87
2017-09-24T17:44:09.546Z,12.82
2017-09-24T17:46:37.907Z,13.00
2017-09-24T17:49:06.270Z,13.11
2017-09-24T17:51:34.627Z,13.30
2017-09-24T17:54:03.195Z,13.33
2017-09-24T17:56:31.543Z,13.23
2017-09-24T17:58:59.919Z,13.26
2017-09-24T18:01:28.248Z,13.21
2017-09-24T18:03:56.610Z,13.20
2017-09-24T18:06:24.960Z,13.17
2017-09-24T18:08:53.319Z,13.22
2017-09-24T18:11:21.669Z,13.30
2017-09-24T18:13:50.016Z,13.23
2017-09-24T18:16:18.382Z,13.23
2017-09-24T18:18:46.718Z,13.23
2017-09-24T18:21:15.087Z,13.20
2017-09-24T18:23:43.460Z,13.14
2017-09-24T18:26:11.850Z,13.13
2017-09-24T18:28:40.220Z,13.15
2017-09-24T18:31:08.576Z,13.05
2017-09-24T18:33:36.950Z,13.00
2017-09-24T18:36:05.306Z,13.05
2017-09-24T18:38:33.694Z,13.00
2017-09-24T18:41:02.455Z,13.16
2017-09-24T18:43:30.880Z,13.09
2017-09-24T18:45:59.864Z,13.10
2017-09-24T18:48:28.343Z,12.99
2017-09-24T18:50:56.690Z,13.00
2017-09-24T18:53:25.047Z,12.95
2017-09-24T18:55:53.607Z,13.06
2017-09-24T18:58:27.758Z,13.03
2017-09-24T19:00:57.668Z,13.08
2017-09-24T19:03:26.563Z,13.07
2017-09-24T19:05:54.911Z,13.07
2017-09-24T19:08:23.265Z,13.05
2017-09-24T19:10:51.639Z,13.04
2017-09-24T19:13:19.995Z,12.95
2017-09-24T19:15:48.474Z,12.92
2017-09-24T19:18:17.111Z,12.89
2017-09-24T19:20:45.810Z,12.75
2017-09-24T19:23:14.183Z,12.83
2017-09-24T19:25:42.589Z,12.93
2017-09-24T19:28:11.223Z,12.85
2017-09-24T19:30:39.574Z,12.84
2017-09-24T19:33:07.918Z,12.92
2017-09-24T19:35:36.280Z,12.88
2017-09-24T19:38:04.626Z,12.77
2017-09-24T19:40:33.010Z,12.82
2017-09-24T19:43:01.359Z,12.95
2017-09-24T19:45:29.707Z,12.85
2017-09-24T19:47:58.086Z,12.75
2017-09-24T19:50:26.434Z,12.89
2017-09-24T19:52:54.809Z,12.87
2017-09-24T19:55:23.157Z,12.78
2017-09-24T19:57:51.534Z,12.75
2017-09-24T20:00:19.908Z,12.77
2017-09-24T20:02:48.266Z,12.87
2017-09-24T20:05:16.643Z,12.77
2017-09-24T20:07:45.016Z,12.86
2017-09-24T20:10:13.386Z,12.71
2017-09-24T20:12:41.855Z,12.89
2017-09-24T20:15:10.471Z,12.94
2017-09-24T20:17:38.825Z,12.83
2017-09-24T20:20:07.166Z,12.78
2017-09-24T20:22:35.518Z,12.63
2017-09-24T20:25:03.872Z,12.60
2017-09-24T20:27:32.251Z,12.59
2017-09-24T20:30:00.632Z,12.58
2017-09-24T20:32:28.979Z,12.59
2017-09-24T20:34:57.358Z,12.54
2017-09-24T20:37:25.703Z,12.55
2017-09-24T20:39:54.085Z,12.58
2017-09-24T20:42:22.442Z,12.64
2017-09-24T20:44:50.816Z,12.77
2017-09-24T20:47:19.166Z,12.93
2017-09-24T20:49:47.524Z,13.02
2017-09-24T20:52:15.876Z,13.07
2017-09-24T20:54:44.230Z,12.97
2017-09-24T20:57:12.579Z,12.94
2017-09-24T20:59:41.035Z,12.86
2017-09-24T21:02:09.399Z,12.73
2017-09-24T21:04:37.738Z,12.78
2017-09-24T21:07:06.094Z,12.70
2017-09-24T21:09:34.466Z,12.71
2017-09-24T21:12:02.820Z,12.61
2017-09-24T21:14:31.167Z,12.55
2017-09-24T21:16:59.522Z,12.55
2017-09-24T21:19:27.876Z,12.49
2017-09-24T21:21:56.250Z,12.61
2017-09-24T21:24:24.623Z,12.67
2017-09-24T21:26:52.971Z,12.71
2017-09-24T21:29:21.320Z,12.75
2017-09-24T21:31:49.671Z,12.73
2017-09-24T21:34:18.019Z,12.92
2017-09-24T21:36:46.392Z,12.86
2017-09-24T21:39:14.763Z,12.95
2017-09-24T21:41:43.114Z,12.84
2017-09-24T21:44:12.242Z,12.81
2017-09-24T21:46:40.590Z,12.86
2017-09-24T21:49:08.942Z,12.75
2017-09-24T21:51:37.288Z,12.74
2017-09-24T21:54:05.636Z,12.81
2017-09-24T21:56:34.011Z,12.73
2017-09-24T21:59:02.395Z,12.78
2017-09-24T22:01:30.771Z,12.76
2017-09-24T22:03:59.117Z,12.66
2017-09-24T22:06:27.495Z,12.69
2017-09-24T22:08:55.841Z,12.76
2017-09-24T22:11:24.200Z,12.73
2017-09-24T22:13:52.543Z,12.74
2017-09-24T22:16:20.892Z,12.77
2017-09-24T22:18:49.388Z,12.74
2017-09-24T22:21:17.734Z,12.62
2017-09-24T22:23:46.085Z,12.71
2017-09-24T22:26:14.427Z,12.78
2017-09-24T22:28:42.776Z,12.72
2017-09-24T22:31:11.126Z,12.80
2017-09-24T22:33:39.533Z,12.73
2017-09-24T22:36:07.929Z,12.78
2017-09-24T22:38:36.254Z,12.68
2017-09-24T22:41:04.730Z,12.63
2017-09-24T22:43:33.078Z,12.63
2017-09-24T22:46:01.762Z,12.51
2017-09-24T22:48:30.135Z,12.43
2017-09-24T22:50:58.485Z,12.46
2017-09-24T22:53:26.830Z,12.36
2017-09-24T22:55:55.227Z,12.41
2017-09-24T22:58:23.596Z,12.52
2017-09-24T23:00:51.972Z,12.45
2017-09-24T23:03:20.319Z,12.44
2017-09-24T23:05:48.695Z,12.71
2017-09-24T23:08:17.044Z,12.72
2017-09-24T23:10:45.398Z,12.82
2017-09-24T23:13:13.750Z,12.73
2017-09-24T23:15:42.095Z,12.53
2017-09-24T23:18:10.470Z,12.66
2017-09-24T23:20:38.820Z,12.52
2017-09-24T23:23:07.158Z,12.64
2017-09-24T23:25:35.635Z,12.76
2017-09-24T23:28:03.983Z,12.64
2017-09-24T23:30:32.338Z,12.42
2017-09-24T23:33:00.682Z,12.59
2017-09-24T23:35:29.034Z,12.40
2017-09-24T23:37:57.407Z,12.39
2017-09-24T23:40:25.779Z,12.47
2017-09-24T23:42:54.149Z,12.49
2017-09-24T23:45:22.525Z,12.59
2017-09-24T23:47:50.867Z,12.32
2017-09-24T23:50:19.214Z,12.30
2017-09-24T23:52:47.595Z,12.39
2017-09-24T23:55:15.943Z,12.44
2017-09-24T23:57:44.323Z,12.51
